createdAt,value
2022-08-17T00:00:02.232Z,21.7
2022-08-17T00:02:18.728Z,21.7
2022-08-17T00:04:08.051Z,21.6
2022-08-17T00:06:05.301Z,21.7
2022-08-17T00:08:06.318Z,21.7
2022-08-17T00:10:10.554Z,21.7
2022-08-17T00:14:12.626Z,21.7
2022-08-17T00:16:13.648Z,21.7
2022-08-17T00:20:15.724Z,21.6
2022-08-17T00:22:33.716Z,21.6
2022-08-17T00:24:21.001Z,21.5
2022-08-17T00:26:34.711Z,21.5
2022-08-17T00:28:23.091Z,21.5
2022-08-17T00:30:24.131Z,21.6
2022-08-17T00:33:15.195Z,21.5
2022-08-17T00:34:27.947Z,21.6
2022-08-17T00:36:27.251Z,21.4
2022-08-17T00:38:31.473Z,21.4
2022-08-17T00:42:33.585Z,21.4
2022-08-17T00:46:56.806Z,21.3
2022-08-17T00:48:57.858Z,21.2
2022-08-17T00:51:02.097Z,21.2
2022-08-17T00:55:04.175Z,21.1
2022-08-17T00:57:05.248Z,21
2022-08-17T00:59:06.281Z,21
2022-08-17T01:01:07.358Z,20.9
2022-08-17T01:03:08.350Z,21
2022-08-17T01:05:12.609Z,20.9
2022-08-17T01:07:13.643Z,20.9
2022-08-17T01:09:14.691Z,20.8
2022-08-17T01:11:15.721Z,20.7
2022-08-17T01:13:16.780Z,20.7
2022-08-17T01:15:17.820Z,20.7
2022-08-17T01:17:18.871Z,20.6
2022-08-17T01:19:23.127Z,20.6
2022-08-17T01:21:24.162Z,20.7
2022-08-17T01:23:25.221Z,20.7
2022-08-17T01:25:26.277Z,20.7
2022-08-17T01:27:27.314Z,20.7
2022-08-17T01:29:28.364Z,20.7
2022-08-17T01:31:29.442Z,20.6
2022-08-17T01:33:33.665Z,20.6
2022-08-17T01:38:37.909Z,20.6
2022-08-17T01:42:40.002Z,20.5
2022-08-17T01:48:46.389Z,20.4
2022-08-17T01:50:47.440Z,20.4
2022-08-17T01:52:48.611Z,20.4
2022-08-17T01:54:49.562Z,20.4
2022-08-17T01:56:50.619Z,20.4
2022-08-17T01:58:51.671Z,20.4
2022-08-17T02:01:01.311Z,20.4
2022-08-17T02:02:57.010Z,20.4
2022-08-17T02:04:58.068Z,20.4
2022-08-17T02:06:59.125Z,20.4
2022-08-17T02:09:03.111Z,20.4
2022-08-17T02:11:02.777Z,20.4
2022-08-17T02:15:08.099Z,20.4
2022-08-17T02:17:09.145Z,20.4
2022-08-17T02:19:10.229Z,20.4
2022-08-17T02:21:11.267Z,20.3
2022-08-17T02:23:12.327Z,20.3
2022-08-17T02:25:13.370Z,20.3
2022-08-17T02:27:14.467Z,20.3
2022-08-17T02:29:18.715Z,20.3
2022-08-17T02:31:19.775Z,20.3
2022-08-17T02:33:20.853Z,20.3
2022-08-17T02:34:22.960Z,20.3
2022-08-17T02:36:27.300Z,20.3
2022-08-17T02:40:36.116Z,20.4
2022-08-17T02:42:30.421Z,20.3
2022-08-17T02:44:39.431Z,20.3
2022-08-17T02:46:32.562Z,20.3
2022-08-17T02:48:33.608Z,20.3
2022-08-17T02:54:41.499Z,20.2
2022-08-17T03:10:51.685Z,20.3
2022-08-17T03:12:52.755Z,20.3
2022-08-17T03:16:54.882Z,20.3
2022-08-17T03:18:55.925Z,20.3
2022-08-17T03:23:02.781Z,20.2
2022-08-17T03:25:02.319Z,20.2
2022-08-17T03:27:03.347Z,20.2
2022-08-17T03:29:04.426Z,20.2
2022-08-17T03:34:08.674Z,20.1
2022-08-17T03:40:15.120Z,20.1
2022-08-17T03:42:32.071Z,20.2
2022-08-17T03:44:17.197Z,20.2
2022-08-17T03:46:28.917Z,20.2
2022-08-17T03:48:19.294Z,20.2
2022-08-17T03:50:20.358Z,20.3
2022-08-17T03:52:24.607Z,20.2
2022-08-17T03:54:25.673Z,20.2
2022-08-17T03:56:26.706Z,20.2
2022-08-17T03:58:27.800Z,20.2
2022-08-17T04:00:28.846Z,20.2
2022-08-17T04:02:29.932Z,20.2
2022-08-17T04:04:30.975Z,20.2
2022-08-17T04:06:35.232Z,20.1
2022-08-17T04:08:36.289Z,20.1
2022-08-17T04:10:41.343Z,20.1
2022-08-17T04:12:38.396Z,20.1
2022-08-17T04:14:53.699Z,20
2022-08-17T04:16:40.526Z,20
2022-08-17T04:18:41.591Z,20
2022-08-17T04:20:45.831Z,20.1
2022-08-17T04:22:46.968Z,20
2022-08-17T04:24:47.976Z,20
2022-08-17T04:27:15.242Z,20
2022-08-17T04:29:16.301Z,20
2022-08-17T04:31:17.358Z,20
2022-08-17T04:35:22.702Z,20
2022-08-17T04:37:23.745Z,20
2022-08-17T04:39:24.860Z,20
2022-08-17T04:41:25.890Z,20
2022-08-17T04:45:28.017Z,20
2022-08-17T04:47:32.271Z,20
2022-08-17T04:49:33.340Z,20
2022-08-17T05:01:42.973Z,20
2022-08-17T05:03:44.026Z,20
2022-08-17T05:05:45.073Z,20
2022-08-17T05:07:46.147Z,20
2022-08-17T05:09:47.211Z,20.1
2022-08-17T05:11:48.306Z,20.1
2022-08-17T05:13:49.338Z,20
2022-08-17T05:15:53.608Z,20
2022-08-17T05:17:54.671Z,20
2022-08-17T05:19:55.738Z,20
2022-08-17T05:20:57.874Z,20.1
2022-08-17T05:22:58.941Z,20.1
2022-08-17T05:24:59.985Z,20.2
2022-08-17T05:27:06.476Z,20.2
2022-08-17T05:29:05.306Z,20
2022-08-17T05:31:06.375Z,20
2022-08-17T05:39:16.624Z,20.1
2022-08-17T05:43:15.992Z,20
2022-08-17T05:45:17.025Z,20
2022-08-17T05:47:18.108Z,19.8
2022-08-17T05:49:19.180Z,19.6
2022-08-17T05:51:20.233Z,19.5
2022-08-17T05:55:22.367Z,19.3
2022-08-17T05:57:26.635Z,19.4
2022-08-17T05:59:27.686Z,19.4
2022-08-17T06:01:28.820Z,19.4
2022-08-17T06:03:29.819Z,19.3
2022-08-17T06:07:31.964Z,19.3
2022-08-17T06:09:33.792Z,19.3
2022-08-17T06:16:41.591Z,19.3
2022-08-17T06:18:42.648Z,19.3
2022-08-17T06:20:43.715Z,19.4
2022-08-17T06:22:44.784Z,19.4
2022-08-17T06:28:51.225Z,19.6
2022-08-17T06:30:58.659Z,19.6
2022-08-17T06:32:53.353Z,19.8
2022-08-17T06:34:54.435Z,19.7
2022-08-17T06:36:55.484Z,19.7
2022-08-17T06:43:06.907Z,19.8
2022-08-17T06:45:02.984Z,19.8
2022-08-17T06:47:04.026Z,19.8
2022-08-17T06:49:05.103Z,19.8
2022-08-17T06:51:06.165Z,19.8
2022-08-17T06:55:18.683Z,20
2022-08-17T06:57:12.568Z,20.1
2022-08-17T06:59:13.616Z,20.1
2022-08-17T07:01:14.784Z,20.2
2022-08-17T07:03:15.756Z,20.2
2022-08-17T07:05:16.817Z,20.4
2022-08-17T07:07:21.061Z,20.5
2022-08-17T07:09:22.105Z,20.5
2022-08-17T07:12:25.441Z,20.6
2022-08-17T07:14:26.342Z,20.6
2022-08-17T07:16:27.391Z,20.7
2022-08-17T07:18:28.454Z,20.7
2022-08-17T07:20:32.700Z,20.8
2022-08-17T07:22:57.362Z,20.8
2022-08-17T07:24:34.782Z,20.9
2022-08-17T07:26:35.816Z,20.9
2022-08-17T07:28:36.851Z,20.9
2022-08-17T07:32:38.933Z,21.2
2022-08-17T07:34:43.176Z,21.3
2022-08-17T07:36:44.214Z,21.4
2022-08-17T07:38:45.247Z,21.5
2022-08-17T07:50:54.616Z,21.6
2022-08-17T07:52:55.650Z,21.5
2022-08-17T07:54:56.668Z,21.4
2022-08-17T07:56:57.697Z,21.5
2022-08-17T07:58:58.742Z,21.5
2022-08-17T08:01:01.302Z,21.6
2022-08-17T08:03:05.449Z,21.8
2022-08-17T08:05:08.594Z,21.7
2022-08-17T08:07:07.494Z,21.8
2022-08-17T08:09:25.301Z,22.1
2022-08-17T08:11:31.327Z,22
2022-08-17T08:13:32.447Z,22.2
2022-08-17T08:15:36.566Z,22.2
2022-08-17T08:17:37.564Z,22.1
2022-08-17T08:19:38.575Z,21.9
2022-08-17T08:21:39.582Z,21.9
2022-08-17T08:23:40.583Z,22
2022-08-17T08:29:46.830Z,21.9
2022-08-17T08:31:47.819Z,21.9
2022-08-17T08:33:48.841Z,22
2022-08-17T08:35:49.849Z,21.9
2022-08-17T08:43:57.081Z,22
2022-08-17T08:48:05.096Z,22
2022-08-17T08:50:04.001Z,22
2022-08-17T08:52:01.131Z,22.1
2022-08-17T08:54:02.138Z,22.1
2022-08-17T08:56:03.253Z,22.3
2022-08-17T08:58:07.350Z,22.6
2022-08-17T09:00:08.378Z,22.6
2022-08-17T09:02:09.371Z,22.7
2022-08-17T09:03:11.489Z,22.7
2022-08-17T09:05:15.070Z,22.6
2022-08-17T09:07:13.471Z,22.7
2022-08-17T09:09:14.448Z,22.7
2022-08-17T09:11:18.663Z,22.8
2022-08-17T09:15:20.619Z,22.9
2022-08-17T09:21:23.584Z,23.1
2022-08-17T09:23:24.549Z,23.1
2022-08-17T09:25:28.731Z,23.3
2022-08-17T09:27:29.704Z,23.3
2022-08-17T09:29:30.675Z,23.3
2022-08-17T09:31:33.446Z,23.1
2022-08-17T09:33:32.610Z,23
2022-08-17T09:35:37.062Z,23.1
2022-08-17T09:37:34.539Z,23.4
2022-08-17T09:39:38.795Z,23.7
2022-08-17T09:41:39.697Z,23.8
2022-08-17T09:43:40.658Z,24.4
2022-08-17T09:45:41.681Z,24
2022-08-17T09:47:36.795Z,23.9
2022-08-17T09:49:37.728Z,24.5
2022-08-17T09:51:38.655Z,24.8
2022-08-17T09:53:44.790Z,24.3
2022-08-17T09:57:44.729Z,24.4
2022-08-17T10:00:47.726Z,24.7
2022-08-17T10:02:48.599Z,24.5
2022-08-17T10:04:49.498Z,24.3
2022-08-17T10:06:53.650Z,23.9
2022-08-17T10:08:54.585Z,23.7
2022-08-17T10:14:57.342Z,23.6
2022-08-17T10:16:58.252Z,23.7
2022-08-17T10:18:59.183Z,23.7
2022-08-17T10:21:03.337Z,23.6
2022-08-17T10:23:04.293Z,23.6
2022-08-17T10:25:22.223Z,23.5
2022-08-17T10:31:33.647Z,23.2
2022-08-17T10:33:09.001Z,23.6
2022-08-17T10:35:13.175Z,23.4
2022-08-17T10:37:14.106Z,23.3
2022-08-17T10:39:15.085Z,23.2
2022-08-17T10:41:16.032Z,23.4
2022-08-17T10:43:16.985Z,23.6
2022-08-17T10:45:17.935Z,23.4
2022-08-17T10:47:18.902Z,23.5
2022-08-17T10:49:23.078Z,23.5
2022-08-17T10:51:24.042Z,23.4
2022-08-17T10:53:24.991Z,23.3
2022-08-17T10:54:27.106Z,23.6
2022-08-17T10:56:28.086Z,23.6
2022-08-17T10:58:29.054Z,23.6
2022-08-17T11:00:29.990Z,23.6
2022-08-17T11:02:34.189Z,23.5
2022-08-17T11:04:35.125Z,23.6
2022-08-17T11:06:36.097Z,23.7
2022-08-17T11:08:37.082Z,23.9
2022-08-17T11:12:38.973Z,23.9
2022-08-17T11:14:39.935Z,23.7
2022-08-17T11:22:47.043Z,23.6
2022-08-17T11:24:47.955Z,23.6
2022-08-17T11:26:48.931Z,23.9
2022-08-17T11:28:52.455Z,23.8
2022-08-17T11:30:54.032Z,23.6
2022-08-17T11:32:55.465Z,23.6
2022-08-17T11:38:57.889Z,23.8
2022-08-17T11:42:59.773Z,23.9
2022-08-17T11:45:03.963Z,23.9
2022-08-17T11:47:04.904Z,24
2022-08-17T11:49:05.894Z,24.2
2022-08-17T11:51:33.627Z,23.9
2022-08-17T11:53:34.593Z,23.8
2022-08-17T11:55:38.214Z,23.5
2022-08-17T11:57:39.732Z,23.5
2022-08-17T11:59:40.685Z,23.6
2022-08-17T12:01:41.677Z,23.6
2022-08-17T12:03:42.601Z,23.6
2022-08-17T12:05:43.577Z,23.5
2022-08-17T12:07:44.574Z,23.3
2022-08-17T12:09:45.502Z,23.3
2022-08-17T12:11:58.767Z,23.5
2022-08-17T12:13:50.640Z,23.5
2022-08-17T12:15:51.621Z,23.5
2022-08-17T12:17:53.220Z,23.4
2022-08-17T12:19:53.559Z,23.1
2022-08-17T12:21:54.547Z,23.1
2022-08-17T12:23:55.519Z,23.2
2022-08-17T12:25:59.692Z,23
2022-08-17T12:28:06.030Z,23
2022-08-17T12:30:01.655Z,22.9
2022-08-17T12:32:02.619Z,22.9
2022-08-17T12:34:03.611Z,23.1
2022-08-17T12:36:04.607Z,23.1
2022-08-17T12:38:05.573Z,23.2
2022-08-17T12:40:09.832Z,23.2
2022-08-17T12:42:10.776Z,23.3
2022-08-17T12:44:11.740Z,23.3
2022-08-17T12:45:13.847Z,23.1
2022-08-17T12:47:19.443Z,23.1
2022-08-17T12:57:22.957Z,23.3
2022-08-17T13:01:25.113Z,22.9
2022-08-17T13:07:31.107Z,22.6
2022-08-17T13:09:35.299Z,22.6
2022-08-17T13:15:35.059Z,22.7
2022-08-17T13:17:36.071Z,22.6
2022-08-17T13:19:40.571Z,22.5
2022-08-17T13:21:41.260Z,22.5
2022-08-17T13:23:42.690Z,22.5
2022-08-17T13:25:43.258Z,22.4
2022-08-17T13:27:44.265Z,22.4
2022-08-17T13:29:45.275Z,22.3
2022-08-17T13:31:52.864Z,22.2
2022-08-17T13:33:47.276Z,22.1
2022-08-17T13:35:51.486Z,22
2022-08-17T13:37:52.607Z,21.9
2022-08-17T13:39:53.578Z,22.1
2022-08-17T13:40:55.605Z,22
2022-08-17T13:42:56.615Z,22
2022-08-17T13:44:57.625Z,21.9
2022-08-17T13:46:58.653Z,21.9
2022-08-17T13:49:04.386Z,21.7
2022-08-17T13:51:05.400Z,21.7
2022-08-17T13:55:07.433Z,21.6
2022-08-17T13:57:08.428Z,21.5
2022-08-17T13:59:09.448Z,21.5
2022-08-17T14:01:12.768Z,21.5
2022-08-17T14:05:15.716Z,21.5
2022-08-17T14:07:16.775Z,21.5
2022-08-17T14:11:18.801Z,21.5
2022-08-17T14:13:19.811Z,21.7
2022-08-17T14:15:20.848Z,21.8
2022-08-17T14:17:25.078Z,21.7
2022-08-17T14:19:26.120Z,21.6
2022-08-17T14:21:27.133Z,21.6
2022-08-17T14:23:28.143Z,21.7
2022-08-17T14:25:29.196Z,21.8
2022-08-17T14:27:30.186Z,21.8
2022-08-17T14:29:31.217Z,21.8
2022-08-17T14:31:37.411Z,21.6
2022-08-17T14:33:36.454Z,21.6
2022-08-17T14:35:37.485Z,21.6
2022-08-17T14:36:39.608Z,21.8
2022-08-17T14:38:40.622Z,21.8
2022-08-17T14:42:42.687Z,21.9
2022-08-17T14:44:46.929Z,22
2022-08-17T14:46:47.973Z,21.9
2022-08-17T14:48:51.696Z,21.9
2022-08-17T14:50:50.023Z,22
2022-08-17T14:52:51.048Z,22
2022-08-17T14:54:52.061Z,22
2022-08-17T14:57:09.374Z,22
2022-08-17T14:58:57.327Z,21.8
2022-08-17T15:00:58.432Z,21.8
2022-08-17T15:02:59.385Z,21.6
2022-08-17T15:05:00.428Z,21.5
2022-08-17T15:07:01.423Z,21.6
2022-08-17T15:09:02.543Z,21.6
2022-08-17T15:13:07.716Z,21.8
2022-08-17T15:15:08.750Z,21.8
2022-08-17T15:17:09.757Z,21.9
2022-08-17T15:19:10.780Z,21.8
2022-08-17T15:21:11.806Z,21.8
2022-08-17T15:23:12.838Z,21.9
2022-08-17T15:25:13.900Z,21.9
2022-08-17T15:27:18.089Z,22.1
2022-08-17T15:29:19.115Z,22.2
2022-08-17T15:35:37.376Z,22.4
2022-08-17T15:37:38.400Z,22.3
2022-08-17T15:39:42.692Z,22.2
2022-08-17T15:41:43.632Z,22.2
2022-08-17T15:43:44.667Z,22.1
2022-08-17T15:45:58.792Z,22.1
2022-08-17T15:47:46.794Z,22.1
2022-08-17T15:49:47.675Z,22.1
2022-08-17T15:51:48.717Z,22
2022-08-17T15:53:52.882Z,22
2022-08-17T15:55:53.898Z,22.1
2022-08-17T15:57:54.900Z,22.1
2022-08-17T16:03:13.251Z,21.8
2022-08-17T16:04:05.173Z,21.7
2022-08-17T16:05:58.942Z,21.8
2022-08-17T16:08:03.190Z,21.7
2022-08-17T16:10:04.165Z,21.7
2022-08-17T16:12:05.186Z,21.7
2022-08-17T16:14:06.190Z,21.7
2022-08-17T16:16:07.196Z,21.5
2022-08-17T16:18:08.211Z,21.5
2022-08-17T16:20:09.221Z,21.6
2022-08-17T16:27:17.584Z,21.4
2022-08-17T16:29:18.622Z,21.4
2022-08-17T16:31:19.637Z,21.4
2022-08-17T16:33:20.654Z,21.4
2022-08-17T16:35:24.905Z,21.4
2022-08-17T16:37:25.899Z,21.3
2022-08-17T16:39:27.152Z,21.3
2022-08-17T16:41:27.961Z,21.3
2022-08-17T16:43:28.963Z,21.3
2022-08-17T16:49:38.071Z,21.3
2022-08-17T16:53:37.339Z,21.2
2022-08-17T16:55:38.352Z,21.1
2022-08-17T16:57:47.428Z,21.2
2022-08-17T16:59:43.605Z,21.3
2022-08-17T17:01:41.463Z,21.4
2022-08-17T17:07:47.767Z,21.2
2022-08-17T17:09:48.809Z,21.2
2022-08-17T17:11:49.831Z,21.3
2022-08-17T17:13:50.879Z,21.3
2022-08-17T17:15:51.899Z,21.3
2022-08-17T17:19:57.189Z,21.3
2022-08-17T17:21:58.209Z,21.3
2022-08-17T17:23:00.341Z,21.4
2022-08-17T17:25:01.400Z,21.4
2022-08-17T17:27:02.390Z,21.5
2022-08-17T17:29:03.417Z,21.5
2022-08-17T17:31:07.646Z,21.4
2022-08-17T17:33:08.689Z,21.3
2022-08-17T17:35:09.736Z,21.4
2022-08-17T17:45:18.068Z,21.3
2022-08-17T17:47:19.096Z,21.2
2022-08-17T17:49:20.106Z,21.2
2022-08-17T17:51:54.818Z,21.1
2022-08-17T17:55:23.223Z,21.1
2022-08-17T17:57:24.261Z,21.2
2022-08-17T17:59:28.474Z,21.2
2022-08-17T18:01:29.567Z,21.2
2022-08-17T18:07:32.615Z,21
2022-08-17T18:09:33.957Z,20.9
2022-08-17T18:11:35.171Z,20.8
2022-08-17T18:13:38.937Z,20.6
2022-08-17T18:15:39.957Z,20.6
2022-08-17T18:17:41.006Z,20.6
2022-08-17T18:18:43.107Z,20.6
2022-08-17T18:20:53.620Z,20.6
2022-08-17T18:22:45.209Z,20.6
2022-08-17T18:24:46.245Z,20.6
2022-08-17T18:26:50.524Z,20.5
2022-08-17T18:28:51.541Z,20.5
2022-08-17T18:30:52.575Z,20.5
2022-08-17T18:32:53.630Z,20.5
2022-08-17T18:34:54.663Z,20.5
2022-08-17T18:36:55.711Z,20.4
2022-08-17T18:38:56.795Z,20.4
2022-08-17T18:43:02.126Z,20.4
2022-08-17T18:53:07.408Z,20.3
2022-08-17T18:55:11.604Z,20.3
2022-08-17T18:57:12.594Z,20.3
2022-08-17T18:59:13.656Z,20.3
2022-08-17T19:01:14.738Z,20.4
2022-08-17T19:07:17.935Z,20.4
2022-08-17T19:09:22.216Z,20.4
2022-08-17T19:11:23.238Z,20.4
2022-08-17T19:13:24.780Z,20.5
2022-08-17T19:16:11.674Z,20.4
2022-08-17T19:17:51.277Z,20.4
2022-08-17T19:19:52.201Z,20.4
2022-08-17T19:21:56.403Z,20.3
2022-08-17T19:23:57.514Z,20.3
2022-08-17T19:25:58.504Z,20.4
2022-08-17T19:28:00.006Z,20.3
2022-08-17T19:32:01.680Z,20.3
2022-08-17T19:34:02.790Z,20.3
2022-08-17T19:38:12.977Z,20.2
2022-08-17T19:40:10.699Z,20.3
2022-08-17T19:46:13.753Z,20.4
2022-08-17T19:50:19.058Z,20.5
2022-08-17T19:52:20.106Z,20.4
2022-08-17T19:54:21.140Z,20.5
2022-08-17T19:56:22.190Z,20.4
2022-08-17T19:58:23.256Z,20.4
2022-08-17T20:00:24.356Z,20.4
2022-08-17T20:02:25.363Z,20.5
2022-08-17T20:04:32.325Z,20.5
2022-08-17T20:06:30.675Z,20.5
2022-08-17T20:09:34.026Z,20.5
2022-08-17T20:15:36.976Z,20.4
2022-08-17T20:17:41.229Z,20.4
2022-08-17T20:25:45.405Z,20.2
2022-08-17T20:27:46.533Z,20.1
2022-08-17T20:29:47.503Z,20.1
2022-08-17T20:31:51.762Z,20.1
2022-08-17T20:33:52.825Z,20.1
2022-08-17T20:35:53.862Z,20
2022-08-17T20:37:54.917Z,20
2022-08-17T20:39:56.012Z,20
2022-08-17T20:42:02.054Z,20
2022-08-17T20:43:58.069Z,20
2022-08-17T20:46:02.318Z,20
2022-08-17T20:48:37.059Z,20
2022-08-17T20:50:04.417Z,20
2022-08-17T20:52:05.468Z,20
2022-08-17T20:54:06.568Z,20
2022-08-17T20:56:07.576Z,19.9
2022-08-17T20:58:08.628Z,19.9
2022-08-17T21:00:12.886Z,19.9
2022-08-17T21:02:18.464Z,19.8
2022-08-17T21:04:14.942Z,19.8
2022-08-17T21:05:17.081Z,19.9
2022-08-17T21:07:18.153Z,19.9
2022-08-17T21:09:19.187Z,19.9
2022-08-17T21:11:20.239Z,19.8
2022-08-17T21:13:24.487Z,19.8
2022-08-17T21:15:25.569Z,19.8
2022-08-17T21:17:26.629Z,19.8
2022-08-17T21:21:28.751Z,19.6
2022-08-17T21:23:29.791Z,19.6
2022-08-17T21:25:30.832Z,19.6
2022-08-17T21:27:35.110Z,19.5
2022-08-17T21:29:40.493Z,19.5
2022-08-17T21:33:38.271Z,19.5
2022-08-17T21:35:39.344Z,19.5
2022-08-17T21:39:41.494Z,19.5
2022-08-17T21:47:48.930Z,19.4
2022-08-17T21:49:49.996Z,19.4
2022-08-17T21:51:51.079Z,19.4
2022-08-17T21:53:52.154Z,19.4
2022-08-17T21:58:14.616Z,19.3
2022-08-17T21:59:58.556Z,19.3
2022-08-17T22:03:01.758Z,19.2
2022-08-17T22:05:02.932Z,19.2
2022-08-17T22:07:03.866Z,19.2
2022-08-17T22:09:08.140Z,19.2
2022-08-17T22:11:09.247Z,19.2
2022-08-17T22:13:17.131Z,19.2
2022-08-17T22:15:11.368Z,19.2
2022-08-17T22:17:12.444Z,19.3
2022-08-17T22:19:13.523Z,19.3
2022-08-17T22:23:18.878Z,19.3
2022-08-17T22:25:19.981Z,19.4
2022-08-17T22:27:21.043Z,19.4
2022-08-17T22:29:22.121Z,19.4
2022-08-17T22:31:23.175Z,19.4
2022-08-17T22:35:25.311Z,19.3
2022-08-17T22:37:29.566Z,19.2
2022-08-17T22:39:30.691Z,19.2
2022-08-17T22:45:33.851Z,19.1
2022-08-17T22:51:40.266Z,19.2
2022-08-17T22:53:41.335Z,19.2
2022-08-17T22:58:10.351Z,19.1
2022-08-17T23:00:11.513Z,19.1
2022-08-17T23:02:12.539Z,19.1
2022-08-17T23:04:16.791Z,19
2022-08-17T23:06:17.878Z,19
2022-08-17T23:08:18.940Z,19
2022-08-17T23:12:21.096Z,19
2022-08-17T23:16:23.245Z,18.9
2022-08-17T23:18:27.483Z,19
2022-08-17T23:20:28.562Z,19
2022-08-17T23:22:29.641Z,19
2022-08-17T23:24:30.720Z,19
2022-08-17T23:26:31.782Z,19
2022-08-17T23:28:32.865Z,18.9
2022-08-17T23:30:33.933Z,19
2022-08-17T23:32:38.184Z,18.9
2022-08-17T23:34:39.230Z,18.9
2022-08-17T23:36:40.302Z,18.8
2022-08-17T23:38:41.377Z,18.8
2022-08-17T23:40:42.449Z,18.7
2022-08-17T23:42:43.836Z,18.7
2022-08-17T23:44:44.625Z,18.7
2022-08-17T23:48:49.959Z,18.6
